createdAt,value
2017-11-17T00:01:38.846Z,28.73
2017-11-17T00:04:05.849Z,27.17
2017-11-17T00:06:32.181Z,26.80
2017-11-17T00:08:58.494Z,24.57
2017-11-17T00:11:24.774Z,25.80
2017-11-17T00:13:51.849Z,26.63
2017-11-17T00:16:18.227Z,26.50
2017-11-17T00:18:44.557Z,27.13
2017-11-17T00:21:10.857Z,26.03
2017-11-17T00:23:37.129Z,27.80
2017-11-17T00:26:03.396Z,24.00
2017-11-17T00:28:29.716Z,27.70
2017-11-17T00:30:56.737Z,25.10
2017-11-17T00:33:24.569Z,26.20
2017-11-17T00:35:50.919Z,26.07
2017-11-17T00:38:17.215Z,28.27
2017-11-17T00:40:43.487Z,27.10
2017-11-17T00:43:09.854Z,28.20
2017-11-17T00:45:36.838Z,28.00
2017-11-17T00:48:03.125Z,27.10
2017-11-17T00:50:30.134Z,25.27
2017-11-17T00:52:56.420Z,25.97
2017-11-17T00:55:22.664Z,23.17
2017-11-17T00:57:48.986Z,23.57
2017-11-17T01:00:15.276Z,24.13
2017-11-17T01:02:41.555Z,24.50
2017-11-17T01:05:08.592Z,22.80
2017-11-17T01:07:34.822Z,22.30
2017-11-17T01:10:01.091Z,22.77
2017-11-17T01:12:27.384Z,22.77
2017-11-17T01:14:53.687Z,21.13
2017-11-17T01:17:20.682Z,23.50
2017-11-17T01:19:46.986Z,21.67
2017-11-17T01:22:13.260Z,22.40
2017-11-17T01:24:39.541Z,23.77
2017-11-17T01:27:05.817Z,23.77
2017-11-17T01:29:32.169Z,23.17
2017-11-17T01:31:58.469Z,24.30
2017-11-17T01:34:24.759Z,22.07
2017-11-17T01:36:51.824Z,23.47
2017-11-17T01:39:18.128Z,23.77
2017-11-17T01:41:45.163Z,23.07
2017-11-17T01:44:12.189Z,23.23
2017-11-17T01:46:38.586Z,22.00
2017-11-17T01:49:04.844Z,24.97
2017-11-17T01:51:31.101Z,23.93
2017-11-17T01:53:57.381Z,23.87
2017-11-17T01:56:23.742Z,26.90
2017-11-17T01:58:50.012Z,23.23
2017-11-17T02:01:17.026Z,23.73
2017-11-17T02:03:43.323Z,21.80
2017-11-17T02:06:09.607Z,26.13
2017-11-17T02:08:36.649Z,23.47
2017-11-17T02:11:03.700Z,24.17
2017-11-17T02:13:30.729Z,25.03
2017-11-17T02:15:56.986Z,23.27
2017-11-17T02:18:24.566Z,25.43
2017-11-17T02:20:50.837Z,25.80
2017-11-17T02:23:17.141Z,23.10
2017-11-17T02:25:43.424Z,24.93
2017-11-17T02:28:09.704Z,24.10
2017-11-17T02:30:36.006Z,24.27
2017-11-17T02:33:03.021Z,26.10
2017-11-17T02:35:29.279Z,23.23
2017-11-17T02:37:56.298Z,24.60
2017-11-17T02:40:23.355Z,23.50
2017-11-17T02:42:49.679Z,24.70
2017-11-17T02:45:15.927Z,24.10
2017-11-17T02:47:42.994Z,26.23
2017-11-17T02:50:09.279Z,24.73
2017-11-17T02:52:35.615Z,25.10
2017-11-17T02:55:01.954Z,24.03
2017-11-17T02:57:29.007Z,25.53
2017-11-17T02:59:55.328Z,26.43
2017-11-17T03:02:21.562Z,27.10
2017-11-17T03:04:48.610Z,25.47
2017-11-17T03:07:14.894Z,26.27
2017-11-17T03:09:41.179Z,26.47
2017-11-17T03:12:08.169Z,25.23
2017-11-17T03:14:34.446Z,23.93
2017-11-17T03:17:00.723Z,24.03
2017-11-17T03:19:27.025Z,23.10
2017-11-17T03:21:54.091Z,19.57
2017-11-17T03:24:21.107Z,19.60
2017-11-17T03:26:47.388Z,21.90
2017-11-17T03:29:13.667Z,20.17
2017-11-17T03:31:39.897Z,18.93
2017-11-17T03:34:06.222Z,20.50
2017-11-17T03:36:32.629Z,19.30
2017-11-17T03:38:58.908Z,21.70
2017-11-17T03:41:25.944Z,17.40
2017-11-17T03:43:52.267Z,19.17
2017-11-17T03:46:18.615Z,18.80
2017-11-17T03:48:45.672Z,18.97
2017-11-17T03:51:12.694Z,18.77
2017-11-17T03:53:39.030Z,18.80
2017-11-17T03:56:06.030Z,17.67
2017-11-17T03:58:32.318Z,19.23
2017-11-17T04:00:59.349Z,18.40
2017-11-17T04:03:25.613Z,17.27
2017-11-17T04:05:51.893Z,17.83
2017-11-17T04:08:18.221Z,18.97
2017-11-17T04:10:44.484Z,18.27
2017-11-17T04:13:11.551Z,17.50
2017-11-17T04:15:37.874Z,17.60
2017-11-17T04:18:04.907Z,20.03
2017-11-17T04:20:31.962Z,17.83
2017-11-17T04:22:58.298Z,19.63
2017-11-17T04:25:25.349Z,18.30
2017-11-17T04:27:51.723Z,17.43
2017-11-17T04:30:17.991Z,18.07
2017-11-17T04:32:44.282Z,20.77
2017-11-17T04:35:10.561Z,18.90
2017-11-17T04:37:37.585Z,18.90
2017-11-17T04:40:03.840Z,19.53
2017-11-17T04:42:30.972Z,20.50
2017-11-17T04:44:57.227Z,19.90
2017-11-17T04:47:24.250Z,20.03
2017-11-17T04:49:50.560Z,18.60
2017-11-17T04:52:16.954Z,17.73
2017-11-17T04:54:43.273Z,18.13
2017-11-17T04:57:09.568Z,20.70
2017-11-17T04:59:35.865Z,20.63
2017-11-17T05:02:02.147Z,19.80
2017-11-17T05:04:29.304Z,18.30
2017-11-17T05:06:56.344Z,19.47
2017-11-17T05:09:23.415Z,16.77
2017-11-17T05:11:49.771Z,19.77
2017-11-17T05:14:16.179Z,19.93
2017-11-17T05:16:42.469Z,18.63
2017-11-17T05:19:08.789Z,20.40
2017-11-17T05:21:35.138Z,18.67
2017-11-17T05:24:01.434Z,19.07
2017-11-17T05:26:27.705Z,19.53
2017-11-17T05:28:54.741Z,21.83
2017-11-17T05:31:21.010Z,18.27
2017-11-17T05:33:48.283Z,20.30
2017-11-17T05:36:14.574Z,18.33
2017-11-17T05:38:41.604Z,20.07
2017-11-17T05:41:07.849Z,21.77
2017-11-17T05:43:34.856Z,20.53
2017-11-17T05:46:01.235Z,23.10
2017-11-17T05:48:27.535Z,21.23
2017-11-17T05:50:53.798Z,22.40
2017-11-17T05:53:20.926Z,20.33
2017-11-17T05:55:47.262Z,21.43
2017-11-17T05:58:13.604Z,21.53
2017-11-17T06:00:47.656Z,18.87
2017-11-17T06:03:14.037Z,17.93
2017-11-17T06:05:40.402Z,20.80
2017-11-17T06:08:06.796Z,19.97
2017-11-17T06:10:33.142Z,18.23
2017-11-17T06:13:00.174Z,19.33
2017-11-17T06:15:26.449Z,19.63
2017-11-17T06:17:52.763Z,16.80
2017-11-17T06:20:19.803Z,18.03
2017-11-17T06:22:46.923Z,18.83
2017-11-17T06:25:13.220Z,18.47
2017-11-17T06:27:39.508Z,20.00
2017-11-17T06:30:06.576Z,18.87
2017-11-17T06:32:32.850Z,17.90
2017-11-17T06:34:59.192Z,17.57
2017-11-17T06:37:25.571Z,16.47
2017-11-17T06:39:51.922Z,18.17
2017-11-17T06:42:18.202Z,17.07
2017-11-17T06:44:44.434Z,16.70
2017-11-17T06:47:11.473Z,16.33
2017-11-17T06:49:37.728Z,17.67
2017-11-17T06:52:04.022Z,14.80
2017-11-17T06:54:30.263Z,13.43
2017-11-17T06:56:56.523Z,14.47
2017-11-17T06:59:22.824Z,13.17
2017-11-17T07:01:49.151Z,13.40
2017-11-17T07:04:15.436Z,14.40
2017-11-17T07:06:41.762Z,12.40
2017-11-17T07:09:08.032Z,14.33
2017-11-17T07:11:34.305Z,13.07
2017-11-17T07:14:00.627Z,14.17
2017-11-17T07:16:27.652Z,14.57
2017-11-17T07:18:53.990Z,12.27
2017-11-17T07:21:20.245Z,14.50
2017-11-17T07:23:46.587Z,14.33
2017-11-17T07:26:12.889Z,14.00
2017-11-17T07:28:39.923Z,9.77
2017-11-17T07:31:06.246Z,13.57
2017-11-17T07:33:33.280Z,13.27
2017-11-17T07:35:59.571Z,12.03
2017-11-17T07:38:25.874Z,12.57
2017-11-17T07:40:52.126Z,10.40
2017-11-17T07:43:18.452Z,8.97
2017-11-17T07:45:44.745Z,9.07
2017-11-17T07:48:11.051Z,9.03
2017-11-17T07:50:37.465Z,10.37
2017-11-17T07:53:03.724Z,10.83
2017-11-17T07:55:30.013Z,10.93
2017-11-17T07:57:56.336Z,8.60
2017-11-17T08:00:23.416Z,10.20
2017-11-17T08:02:49.699Z,11.73
2017-11-17T08:05:16.741Z,11.83
2017-11-17T08:07:43.779Z,12.57
2017-11-17T08:10:10.033Z,13.13
2017-11-17T08:12:37.086Z,13.73
2017-11-17T08:15:04.130Z,15.40
2017-11-17T08:17:49.752Z,15.97
2017-11-17T08:20:16.079Z,14.80
2017-11-17T08:22:42.448Z,16.30
2017-11-17T08:25:08.738Z,16.80
2017-11-17T08:27:35.115Z,16.37
2017-11-17T08:30:01.475Z,15.80
2017-11-17T08:32:27.792Z,16.33
2017-11-17T08:34:54.181Z,17.13
2017-11-17T08:37:20.469Z,17.40
2017-11-17T08:39:46.878Z,17.67
2017-11-17T08:42:13.409Z,15.40
2017-11-17T08:44:39.705Z,15.13
2017-11-17T08:47:06.014Z,15.60
2017-11-17T08:49:32.325Z,15.13
2017-11-17T08:51:59.426Z,14.20
2017-11-17T08:54:25.786Z,12.30
2017-11-17T08:56:52.134Z,12.20
2017-11-17T08:59:19.183Z,12.67
2017-11-17T09:01:46.251Z,14.10
2017-11-17T09:04:12.540Z,13.00
2017-11-17T09:06:38.928Z,14.37
2017-11-17T09:09:05.391Z,15.17
2017-11-17T09:11:31.701Z,11.87
2017-11-17T09:13:58.005Z,12.53
2017-11-17T09:16:24.402Z,12.47
2017-11-17T09:18:50.765Z,14.20
2017-11-17T09:21:17.096Z,12.87
2017-11-17T09:23:43.387Z,13.90
2017-11-17T09:26:10.703Z,13.03
2017-11-17T09:28:37.013Z,13.73
2017-11-17T09:31:03.327Z,13.73
2017-11-17T09:33:30.354Z,15.20
2017-11-17T09:35:57.430Z,15.60
2017-11-17T09:38:24.449Z,12.70
2017-11-17T09:40:50.751Z,13.17
2017-11-17T09:43:17.150Z,15.70
2017-11-17T09:45:44.218Z,14.67
2017-11-17T09:48:10.523Z,14.27
2017-11-17T09:50:37.643Z,15.17
2017-11-17T09:53:03.985Z,13.67
2017-11-17T09:55:30.232Z,14.60
2017-11-17T09:57:57.299Z,16.87
2017-11-17T10:00:23.667Z,15.60
2017-11-17T10:02:50.019Z,16.30
2017-11-17T10:05:16.307Z,18.30
2017-11-17T10:07:42.653Z,17.50
2017-11-17T10:10:08.978Z,17.10
2017-11-17T10:12:35.287Z,18.43
2017-11-17T10:15:01.573Z,16.50
2017-11-17T10:17:27.887Z,17.00
2017-11-17T10:19:54.221Z,16.17
2017-11-17T10:22:20.483Z,16.13
2017-11-17T10:24:47.533Z,15.77
2017-11-17T10:27:14.553Z,17.77
2017-11-17T10:29:40.850Z,16.73
2017-11-17T10:32:07.182Z,16.93
2017-11-17T10:34:33.509Z,16.63
2017-11-17T10:36:59.843Z,16.27
2017-11-17T10:39:26.177Z,16.03
2017-11-17T10:41:52.466Z,17.00
2017-11-17T10:44:19.562Z,17.63
2017-11-17T10:46:45.868Z,17.10
2017-11-17T10:49:12.190Z,17.13
2017-11-17T10:51:38.483Z,17.63
2017-11-17T10:54:04.851Z,19.10
2017-11-17T10:56:31.969Z,18.93
2017-11-17T10:59:00.234Z,19.00
2017-11-17T11:01:26.557Z,19.67
2017-11-17T11:03:52.825Z,20.17
2017-11-17T11:06:19.875Z,17.97
2017-11-17T11:08:46.925Z,17.10
2017-11-17T11:11:20.071Z,19.07
2017-11-17T11:13:46.367Z,18.43
2017-11-17T11:16:12.627Z,19.70
2017-11-17T11:18:38.959Z,20.97
2017-11-17T11:21:05.273Z,20.63
2017-11-17T11:23:31.642Z,20.80
2017-11-17T11:25:58.014Z,18.40
2017-11-17T11:28:24.339Z,18.07
2017-11-17T11:30:50.709Z,17.97
2017-11-17T11:33:17.006Z,19.33
2017-11-17T11:35:44.069Z,18.70
2017-11-17T11:38:10.591Z,16.83
2017-11-17T11:40:37.480Z,18.53
2017-11-17T11:43:03.830Z,19.37
2017-11-17T11:45:30.139Z,19.27
2017-11-17T11:47:56.491Z,17.77
2017-11-17T11:50:22.796Z,18.70
2017-11-17T11:52:49.112Z,17.77
2017-11-17T11:55:15.415Z,17.70
2017-11-17T11:57:42.437Z,19.57
2017-11-17T12:00:08.840Z,18.83
2017-11-17T12:02:35.877Z,17.20
2017-11-17T12:05:02.205Z,17.07
2017-11-17T12:07:28.557Z,19.27
2017-11-17T12:09:54.910Z,17.77
2017-11-17T12:12:21.196Z,18.80
2017-11-17T12:14:47.504Z,19.10
2017-11-17T12:17:14.562Z,16.00
2017-11-17T12:19:40.858Z,16.23
2017-11-17T12:22:07.155Z,16.63
2017-11-17T12:24:33.470Z,16.87
2017-11-17T12:26:59.801Z,16.10
2017-11-17T12:29:26.097Z,14.07
2017-11-17T12:31:53.116Z,14.50
2017-11-17T12:34:19.427Z,12.67
2017-11-17T12:36:45.840Z,12.70
2017-11-17T12:39:12.170Z,15.40
2017-11-17T12:41:38.473Z,15.00
2017-11-17T12:44:04.826Z,15.40
2017-11-17T12:46:31.126Z,15.03
2017-11-17T12:48:58.197Z,13.57
2017-11-17T12:51:24.507Z,12.50
2017-11-17T12:53:50.797Z,12.30
2017-11-17T12:56:17.101Z,11.83
2017-11-17T12:58:43.449Z,12.80
2017-11-17T13:01:09.813Z,11.70
2017-11-17T13:03:36.091Z,11.30
2017-11-17T13:06:02.385Z,12.60
2017-11-17T13:08:29.418Z,12.30
2017-11-17T13:10:56.449Z,10.93
2017-11-17T13:13:22.737Z,10.57
2017-11-17T13:15:50.022Z,10.03
2017-11-17T13:18:16.417Z,9.83
2017-11-17T13:20:42.877Z,8.70
2017-11-17T13:23:09.202Z,8.93
2017-11-17T13:25:35.517Z,8.67
2017-11-17T13:28:01.823Z,7.40
2017-11-17T13:30:28.889Z,8.23
2017-11-17T13:32:55.200Z,8.57
2017-11-17T13:35:22.238Z,7.47
2017-11-17T13:37:48.533Z,7.93
2017-11-17T13:40:14.907Z,6.90
2017-11-17T13:42:42.032Z,7.70
2017-11-17T13:45:08.392Z,7.67
2017-11-17T13:47:34.657Z,8.83
2017-11-17T13:50:00.964Z,8.27
2017-11-17T13:52:27.974Z,7.40
2017-11-17T13:54:54.309Z,6.30
2017-11-17T13:57:20.575Z,7.57
2017-11-17T13:59:47.631Z,6.67
2017-11-17T14:02:13.920Z,6.50
2017-11-17T14:04:40.224Z,6.03
2017-11-17T14:07:06.629Z,5.60
2017-11-17T14:09:32.976Z,4.10
2017-11-17T14:11:59.282Z,6.07
2017-11-17T14:14:26.564Z,6.07
2017-11-17T14:16:52.850Z,5.90
2017-11-17T14:19:19.914Z,6.30
2017-11-17T14:21:46.246Z,5.43
2017-11-17T14:24:13.372Z,6.00
2017-11-17T14:26:39.752Z,8.33
2017-11-17T14:29:06.088Z,7.53
2017-11-17T14:31:32.426Z,6.93
2017-11-17T14:34:05.793Z,8.10
2017-11-17T14:36:32.160Z,8.57
2017-11-17T14:38:58.498Z,8.50
2017-11-17T14:41:25.029Z,8.70
2017-11-17T14:43:51.519Z,7.60
2017-11-17T14:46:18.590Z,8.57
2017-11-17T14:48:44.939Z,8.53
2017-11-17T14:51:11.272Z,7.00
2017-11-17T14:53:37.602Z,6.60
2017-11-17T14:56:03.896Z,6.83
2017-11-17T14:58:31.975Z,6.70
2017-11-17T15:00:58.273Z,7.50
2017-11-17T15:03:24.774Z,9.13
2017-11-17T15:05:51.100Z,6.90
2017-11-17T15:08:17.419Z,6.60
2017-11-17T15:10:43.798Z,7.00
2017-11-17T15:13:10.193Z,7.43
2017-11-17T15:15:36.533Z,8.13
2017-11-17T15:18:03.578Z,7.77
2017-11-17T15:20:29.896Z,5.67
2017-11-17T15:22:56.304Z,4.90
2017-11-17T15:25:22.587Z,5.17
2017-11-17T15:27:48.854Z,6.43
2017-11-17T15:30:15.908Z,7.83
2017-11-17T15:32:42.183Z,7.60
2017-11-17T15:35:08.484Z,8.50
2017-11-17T15:37:34.775Z,10.00
2017-11-17T15:40:01.053Z,11.27
2017-11-17T15:42:27.367Z,15.43
2017-11-17T15:44:53.709Z,16.27
2017-11-17T15:47:19.991Z,15.13
2017-11-17T15:49:46.307Z,13.27
2017-11-17T15:52:12.627Z,10.10
2017-11-17T15:54:38.928Z,10.40
2017-11-17T15:57:05.257Z,9.20
2017-11-17T15:59:31.526Z,9.53
2017-11-17T16:01:57.814Z,9.43
2017-11-17T16:04:24.085Z,11.07
2017-11-17T16:06:50.414Z,11.30
2017-11-17T16:09:16.958Z,13.50
2017-11-17T16:11:43.225Z,13.07
2017-11-17T16:14:10.238Z,13.70
2017-11-17T16:16:36.545Z,14.17
2017-11-17T16:19:02.854Z,13.80
2017-11-17T16:21:29.166Z,12.13
2017-11-17T16:23:55.525Z,13.23
2017-11-17T16:26:21.801Z,13.80
2017-11-17T16:28:48.159Z,13.90
2017-11-17T16:31:15.182Z,13.00
2017-11-17T16:33:41.496Z,14.13
2017-11-17T16:36:07.834Z,13.47
2017-11-17T16:38:34.130Z,16.83
2017-11-17T16:41:00.401Z,16.63
2017-11-17T16:43:26.674Z,13.80
2017-11-17T16:45:53.161Z,16.00
2017-11-17T16:48:20.053Z,16.47
2017-11-17T16:50:46.463Z,18.73
2017-11-17T16:53:13.476Z,18.40
2017-11-17T16:55:39.762Z,19.97
2017-11-17T16:58:06.086Z,19.10
2017-11-17T17:00:33.131Z,19.60
2017-11-17T17:03:00.188Z,22.07
2017-11-17T17:05:26.643Z,21.53
2017-11-17T17:07:52.934Z,23.30
2017-11-17T17:10:19.944Z,24.20
2017-11-17T17:12:46.260Z,23.20
2017-11-17T17:15:12.547Z,21.23
2017-11-17T17:17:39.603Z,18.07
2017-11-17T17:20:06.685Z,22.10
2017-11-17T17:22:33.010Z,19.53
2017-11-17T17:24:59.367Z,18.90
2017-11-17T17:27:25.645Z,22.70
2017-11-17T17:29:52.658Z,32.27
2017-11-17T17:32:18.982Z,33.20
2017-11-17T17:34:45.291Z,36.23
2017-11-17T17:37:11.572Z,37.03
2017-11-17T17:39:38.623Z,37.10
2017-11-17T17:42:05.675Z,35.13
2017-11-17T17:44:32.700Z,35.23
2017-11-17T17:46:59.016Z,28.90
2017-11-17T17:49:25.415Z,29.40
2017-11-17T17:51:51.725Z,31.50
2017-11-17T17:54:18.791Z,27.63
2017-11-17T17:56:45.156Z,29.10
2017-11-17T17:59:11.418Z,25.80
2017-11-17T18:01:38.436Z,23.10
2017-11-17T18:04:04.841Z,22.20
2017-11-17T18:06:31.118Z,20.43
2017-11-17T18:08:57.496Z,17.30
2017-11-17T18:11:23.757Z,18.70
2017-11-17T18:13:50.062Z,16.17
2017-11-17T18:16:16.381Z,17.70
2017-11-17T18:18:42.665Z,19.43
2017-11-17T18:21:08.998Z,21.23
2017-11-17T18:23:35.299Z,20.70
2017-11-17T18:26:02.317Z,19.13
2017-11-17T18:28:29.708Z,19.30
2017-11-17T18:30:56.005Z,22.90
2017-11-17T18:33:22.341Z,17.77
2017-11-17T18:35:49.352Z,17.40
2017-11-17T18:38:15.709Z,17.80
2017-11-17T18:40:42.018Z,20.27
2017-11-17T18:43:09.181Z,19.50
2017-11-17T18:45:35.593Z,19.53
2017-11-17T18:48:01.934Z,18.70
2017-11-17T18:50:28.939Z,17.73
2017-11-17T18:52:55.269Z,18.20
2017-11-17T18:55:21.523Z,19.23
2017-11-17T18:57:47.895Z,20.33
2017-11-17T19:00:14.255Z,19.40
2017-11-17T19:02:40.567Z,20.67
2017-11-17T19:05:07.058Z,20.60
2017-11-17T19:07:33.459Z,20.87
2017-11-17T19:09:59.801Z,20.20
2017-11-17T19:12:26.179Z,21.10
2017-11-17T19:14:52.591Z,20.10
2017-11-17T19:17:18.881Z,19.33
2017-11-17T19:19:45.298Z,20.40
2017-11-17T19:22:11.659Z,21.10
2017-11-17T19:24:38.121Z,19.60
2017-11-17T19:27:04.416Z,21.87
2017-11-17T19:29:30.711Z,19.90
2017-11-17T19:31:57.085Z,23.13
2017-11-17T19:34:23.428Z,23.30
2017-11-17T19:36:49.858Z,23.43
2017-11-17T19:39:16.136Z,24.60
2017-11-17T19:41:42.474Z,24.17
2017-11-17T19:44:08.744Z,22.67
2017-11-17T19:46:35.095Z,22.73
2017-11-17T19:49:01.406Z,24.80
2017-11-17T19:51:27.724Z,23.53
2017-11-17T19:53:54.040Z,22.67
2017-11-17T19:56:20.880Z,23.13
2017-11-17T19:58:47.312Z,27.40
2017-11-17T20:01:20.657Z,43.67
2017-11-17T20:03:47.070Z,24.90
2017-11-17T20:06:14.333Z,26.33
2017-11-17T20:08:40.666Z,22.30
2017-11-17T20:11:06.947Z,23.97
2017-11-17T20:13:33.282Z,21.37
2017-11-17T20:15:59.567Z,22.30
2017-11-17T20:18:25.877Z,19.80
2017-11-17T20:20:52.209Z,23.70
2017-11-17T20:23:18.523Z,26.37
2017-11-17T20:25:45.167Z,24.80
2017-11-17T20:28:11.655Z,27.30
2017-11-17T20:30:38.716Z,23.10
2017-11-17T20:33:05.924Z,26.47
2017-11-17T20:35:32.345Z,27.27
2017-11-17T20:37:58.746Z,25.53
2017-11-17T20:40:25.073Z,27.70
2017-11-17T20:42:51.412Z,23.83
2017-11-17T20:45:17.764Z,24.80
2017-11-17T20:47:45.126Z,23.17
2017-11-17T20:50:11.443Z,23.10
2017-11-17T20:52:37.749Z,23.30
2017-11-17T20:55:04.086Z,22.27
2017-11-17T20:57:30.478Z,22.67
2017-11-17T20:59:56.771Z,23.03
2017-11-17T21:02:23.117Z,22.10
2017-11-17T21:04:49.490Z,21.10
2017-11-17T21:07:16.558Z,20.67
2017-11-17T21:09:42.922Z,20.93
2017-11-17T21:12:09.278Z,21.40
2017-11-17T21:14:35.557Z,24.93
2017-11-17T21:17:01.890Z,24.17
2017-11-17T21:19:28.212Z,22.87
2017-11-17T21:21:54.511Z,21.20
2017-11-17T21:24:20.854Z,22.87
2017-11-17T21:26:47.934Z,24.40
2017-11-17T21:29:14.276Z,27.50
2017-11-17T21:31:40.624Z,25.87
2017-11-17T21:34:06.935Z,23.50
2017-11-17T21:36:33.271Z,23.20
2017-11-17T21:38:59.581Z,23.00
2017-11-17T21:41:25.901Z,23.63
2017-11-17T21:43:53.935Z,20.97
2017-11-17T21:46:20.266Z,24.37
2017-11-17T21:48:46.660Z,23.43
2017-11-17T21:51:12.951Z,24.50
2017-11-17T21:53:40.014Z,22.73
2017-11-17T21:56:07.025Z,24.77
2017-11-17T21:58:33.332Z,22.17
2017-11-17T22:00:59.633Z,29.20
2017-11-17T22:03:26.988Z,27.50
2017-11-17T22:05:53.243Z,25.00
2017-11-17T22:08:19.509Z,22.80
2017-11-17T22:10:45.904Z,25.00
2017-11-17T22:13:12.219Z,26.17
2017-11-17T22:15:38.480Z,26.97
2017-11-17T22:18:04.806Z,25.87
2017-11-17T22:20:31.125Z,26.20
2017-11-17T22:22:57.440Z,25.43
2017-11-17T22:25:23.704Z,22.57
2017-11-17T22:27:49.986Z,21.30
2017-11-17T22:30:17.010Z,22.40
2017-11-17T22:32:43.378Z,22.57
2017-11-17T22:35:09.652Z,22.80
2017-11-17T22:37:36.580Z,21.80
2017-11-17T22:40:02.836Z,20.07
2017-11-17T22:42:29.140Z,23.27
2017-11-17T22:44:55.436Z,23.20
2017-11-17T22:47:21.703Z,23.23
2017-11-17T22:49:48.025Z,23.50
2017-11-17T22:52:14.323Z,23.53
2017-11-17T22:54:41.379Z,24.80
2017-11-17T22:57:07.664Z,22.50
2017-11-17T22:59:34.056Z,22.27
2017-11-17T23:02:00.829Z,22.00
2017-11-17T23:04:28.182Z,20.10
2017-11-17T23:06:54.544Z,19.00
2017-11-17T23:09:30.635Z,20.40
2017-11-17T23:11:57.216Z,21.67
2017-11-17T23:14:27.662Z,17.57
2017-11-17T23:16:54.091Z,20.33
2017-11-17T23:19:21.134Z,17.20
2017-11-17T23:21:47.407Z,17.27
2017-11-17T23:24:13.660Z,16.47
2017-11-17T23:26:40.007Z,17.30
2017-11-17T23:29:06.312Z,17.87
2017-11-17T23:31:32.628Z,16.70
2017-11-17T23:33:58.911Z,13.90
2017-11-17T23:36:25.206Z,17.20
2017-11-17T23:38:51.519Z,15.47
2017-11-17T23:41:17.864Z,15.63
2017-11-17T23:43:44.076Z,16.00
2017-11-17T23:46:10.350Z,14.07
2017-11-17T23:48:36.641Z,14.17
2017-11-17T23:51:03.672Z,15.90
2017-11-17T23:53:29.939Z,15.83
2017-11-17T23:55:56.232Z,15.10
2017-11-17T23:58:23.220Z,15.50
